Terminal Aerodrome Forecast
Issued by NWS

Home | Current Version | Previous Version | Text Only | Print | Product List | Glossary On
Versions: 1 2 3 4 5 6 7 8 9 10 11 12 13 14 15 16 17 18 19
000
FTUS44 KCRP 270529
TAFALI
TAF
KALI 270529Z 2706/2806 15007KT P6SM SKC
     FM271000 VRB03KT 6SM BR SCT012
      TEMPO 2710/2713 4SM BR BKN012
     FM271300 19006KT P6SM FEW025
     FM271900 13010G15KT P6SM FEW070
     FM280100 14010KT P6SM SKC=

USA.gov is the U.S. government's official web portal to all federal, state and local government web resources and services.